Terminal Aerodrome Forecast
Issued by NWS

Home | Current Version | Previous Version | Text Only | Print | Product List | Glossary On
Versions: 1 2 3 4 5 6 7 8 9 10 11 12 13 14 15 16 17 18 19 20 21 22 23 24 25 26 27 28 29 30 31 32 33 34
000
FTUS41 KCTP 240317 AAA
TAFBFD
TAF AMD
KBFD 240317Z 2403/2424 15004KT P6SM OVC250
     FM240900 14002KT P6SM OVC035
     FM241500 13005KT P6SM OVC050
     FM241900 13008G15KT P6SM OVC050=

USA.gov is the U.S. government's official web portal to all federal, state and local government web resources and services.